Accedi per prenotare

Caricamento...

Situazione Metar e Taf aeroporto Pisa - Effemeridi Aeroporto Lucca

[Source: ADDS]
METAR
LIRP 192045Z 07005KT CAVOK 20/19 Q1015 NOSIG =
LIRP 191700Z 1918/2018 33005KT CAVOK BECMG 2003/2005 FEW020 SCT060 TEMPO 2008/2018 5000 RA BR
TAF
LIRP 191700Z 1918/2018 33005KT CAVOK BECMG 2003/2005 FEW020 SCT060 TEMPO 2008/2018 5000 RA BR =
SR / SS: 05:04 / 17:22 UTC (Effemeridi LIQL 2020-09-19)